Time;durP1;ratioP1;P1;durP2;ratioP2;P2;SDS_P1;SDS_P2;PMS_P1;PMS_P2;Temp;Humidity;BMP_temperature;BMP_pressure;BME280_temperature;BME280_humidity;BME280_pressure;Samples;Min_cycle;Max_cycle;Signal;HPM_P1;HPM_P2
2021/03/30 00:00:43;;;;;;;16.63;10.07;;;;;;;;;;5084640;28;20418;-73
2021/03/30 00:03:09;;;;;;;18.33;9.60;;;;;;;;;;5062433;28;20412;-74
2021/03/30 00:05:35;;;;;;;18.50;9.60;;;;;;;;;;5086702;28;20437;-74
2021/03/30 00:08:00;;;;;;;18.00;10.02;;;;;;;;;;5085782;28;20401;-74
2021/03/30 00:10:38;;;;;;;15.23;9.82;;;;;;;;;;5084843;28;20398;-74
2021/03/30 00:13:05;;;;;;;18.30;10.48;;;;;;;;;;5059436;28;20399;-74
2021/03/30 00:15:31;;;;;;;14.93;8.93;;;;;;;;;;5084261;28;20386;-74
2021/03/30 00:17:57;;;;;;;16.00;9.35;;;;;;;;;;5061895;28;20419;-73
2021/03/30 00:20:23;;;;;;;14.35;8.98;;;;;;;;;;5085887;28;20417;-73
2021/03/30 00:22:49;;;;;;;16.42;9.70;;;;;;;;;;5083421;28;20409;-74
2021/03/30 00:25:15;;;;;;;16.63;9.13;;;;;;;;;;5085270;28;20833;-74
2021/03/30 00:27:41;;;;;;;15.32;9.35;;;;;;;;;;5083936;28;20405;-73
2021/03/30 00:30:08;;;;;;;17.23;9.60;;;;;;;;;;5083609;28;20462;-73
2021/03/30 00:32:34;;;;;;;17.33;9.93;;;;;;;;;;5085182;28;20428;-73
2021/03/30 00:35:00;;;;;;;16.27;9.50;;;;;;;;;;5069042;28;20402;-74
2021/03/30 00:37:26;;;;;;;17.17;9.75;;;;;;;;;;5084805;28;20410;-73
2021/03/30 00:39:52;;;;;;;15.10;9.93;;;;;;;;;;5083953;28;20453;-73
2021/03/30 00:42:18;;;;;;;15.93;9.00;;;;;;;;;;5084928;28;20398;-73
2021/03/30 00:44:45;;;;;;;13.65;9.07;;;;;;;;;;5084474;28;20739;-74
2021/03/30 00:47:12;;;;;;;16.80;9.48;;;;;;;;;;5083341;28;20467;-74
2021/03/30 00:49:38;;;;;;;17.23;9.15;;;;;;;;;;5084956;28;20414;-73
2021/03/30 00:52:05;;;;;;;14.73;8.70;;;;;;;;;;5085367;28;20394;-73
2021/03/30 00:54:31;;;;;;;15.75;8.65;;;;;;;;;;5081963;28;20952;-73
2021/03/30 00:56:57;;;;;;;15.88;9.23;;;;;;;;;;5059805;28;20398;-73
2021/03/30 00:59:23;;;;;;;16.63;8.45;;;;;;;;;;5083666;28;20855;-74
2021/03/30 01:01:49;;;;;;;19.33;8.65;;;;;;;;;;5081707;28;20521;-73
2021/03/30 01:04:15;;;;;;;13.32;8.40;;;;;;;;;;5058742;28;20393;-73
2021/03/30 01:06:41;;;;;;;16.60;8.45;;;;;;;;;;5083508;28;20394;-73
2021/03/30 01:09:18;;;;;;;16.35;9.05;;;;;;;;;;5059066;28;20450;-74
2021/03/30 01:12:11;;;;;;;14.15;8.82;;;;;;;;;;5084156;28;20520;-76
2021/03/30 01:14:55;;;;;;;16.63;8.95;;;;;;;;;;5044042;28;20459;-73
2021/03/30 01:17:26;;;;;;;17.75;9.15;;;;;;;;;;5083207;28;20402;-74
2021/03/30 01:20:11;;;;;;;12.73;8.85;;;;;;;;;;5083821;28;20429;-73
2021/03/30 01:22:37;;;;;;;14.93;8.88;;;;;;;;;;5084135;28;20478;-75
2021/03/30 01:25:04;;;;;;;16.33;8.82;;;;;;;;;;5081640;28;20405;-73
2021/03/30 01:27:30;;;;;;;14.80;8.85;;;;;;;;;;5084819;28;20402;-74
2021/03/30 01:29:58;;;;;;;15.37;9.17;;;;;;;;;;5058673;28;20489;-73
2021/03/30 01:32:27;;;;;;;13.55;9.50;;;;;;;;;;5082802;28;20833;-73
2021/03/30 01:34:54;;;;;;;17.48;8.98;;;;;;;;;;5056691;28;20786;-73
2021/03/30 01:37:21;;;;;;;16.10;9.75;;;;;;;;;;5082036;28;21027;-73
2021/03/30 01:39:49;;;;;;;15.07;9.32;;;;;;;;;;5081503;28;20425;-74
2021/03/30 01:42:20;;;;;;;18.13;9.73;;;;;;;;;;5082427;28;20455;-74
2021/03/30 01:44:46;;;;;;;16.98;9.52;;;;;;;;;;5080000;28;20433;-73
2021/03/30 01:47:12;;;;;;;15.97;9.53;;;;;;;;;;5084412;28;20402;-74
2021/03/30 01:49:40;;;;;;;17.85;9.65;;;;;;;;;;5082779;28;20398;-73
2021/03/30 01:52:07;;;;;;;14.48;9.30;;;;;;;;;;5083387;28;20393;-73
2021/03/30 01:54:34;;;;;;;17.60;9.70;;;;;;;;;;5081968;28;20390;-73
2021/03/30 01:57:00;;;;;;;16.50;9.80;;;;;;;;;;5058187;28;20414;-74
2021/03/30 01:59:27;;;;;;;19.13;9.43;;;;;;;;;;5081590;28;20425;-74
2021/03/30 02:01:53;;;;;;;16.23;9.52;;;;;;;;;;5082441;28;20442;-74
2021/03/30 02:04:20;;;;;;;15.93;9.48;;;;;;;;;;5082759;28;20398;-73
2021/03/30 02:06:47;;;;;;;15.35;9.80;;;;;;;;;;5083871;28;20892;-73
2021/03/30 02:09:19;;;;;;;16.88;10.15;;;;;;;;;;5082480;28;20421;-73
2021/03/30 02:11:59;;;;;;;17.50;9.90;;;;;;;;;;5083305;28;20413;-73
2021/03/30 02:14:25;;;;;;;18.25;9.90;;;;;;;;;;5083078;28;20785;-74
2021/03/30 02:16:57;;;;;;;17.95;10.32;;;;;;;;;;5054616;28;20396;-74
2021/03/30 02:19:36;;;;;;;15.93;10.45;;;;;;;;;;5080166;28;20414;-74
2021/03/30 02:22:07;;;;;;;15.50;10.02;;;;;;;;;;5083181;28;20488;-73
2021/03/30 02:24:34;;;;;;;20.33;10.57;;;;;;;;;;5081295;28;20419;-73
2021/03/30 02:27:00;;;;;;;21.50;10.05;;;;;;;;;;5083455;28;20386;-74
2021/03/30 02:29:32;;;;;;;22.50;10.00;;;;;;;;;;5083135;28;20394;-74
2021/03/30 02:31:59;;;;;;;18.70;10.73;;;;;;;;;;5082813;28;20398;-73
2021/03/30 02:34:27;;;;;;;15.75;10.60;;;;;;;;;;5080402;28;20463;-73
2021/03/30 02:36:55;;;;;;;16.63;10.43;;;;;;;;;;5083579;28;20719;-73
2021/03/30 02:39:21;;;;;;;16.92;10.63;;;;;;;;;;5081152;28;20428;-74
2021/03/30 02:41:48;;;;;;;20.63;10.73;;;;;;;;;;5081291;28;20390;-74
2021/03/30 02:44:18;;;;;;;17.88;11.18;;;;;;;;;;5083281;28;20401;-73
2021/03/30 02:46:44;;;;;;;17.45;10.85;;;;;;;;;;5065298;28;20534;-73
2021/03/30 02:49:12;;;;;;;16.65;10.70;;;;;;;;;;5080990;28;20426;-74
2021/03/30 02:51:39;;;;;;;20.65;11.32;;;;;;;;;;5056103;28;20406;-74
2021/03/30 02:54:05;;;;;;;19.02;11.07;;;;;;;;;;5080625;28;20445;-74
2021/03/30 02:56:31;;;;;;;17.52;11.13;;;;;;;;;;5082622;28;20397;-74
2021/03/30 02:58:58;;;;;;;22.35;11.02;;;;;;;;;;5081562;28;20413;-74
2021/03/30 03:01:24;;;;;;;21.75;11.52;;;;;;;;;;5081033;28;20394;-73
2021/03/30 03:03:52;;;;;;;19.27;11.63;;;;;;;;;;5082146;28;20398;-73
2021/03/30 03:06:19;;;;;;;17.33;11.13;;;;;;;;;;5081548;28;20455;-73
2021/03/30 03:08:46;;;;;;;17.55;11.45;;;;;;;;;;5083371;28;20437;-73
2021/03/30 03:11:13;;;;;;;18.40;11.13;;;;;;;;;;5082428;28;20436;-73
2021/03/30 03:13:40;;;;;;;17.85;11.25;;;;;;;;;;5082204;28;20390;-73
2021/03/30 03:16:07;;;;;;;21.30;11.75;;;;;;;;;;5082437;28;20421;-73
2021/03/30 03:18:34;;;;;;;18.02;11.57;;;;;;;;;;5081337;28;21093;-73
2021/03/30 03:21:00;;;;;;;18.65;11.38;;;;;;;;;;5080331;28;20416;-73
2021/03/30 03:23:26;;;;;;;18.00;12.63;;;;;;;;;;5081648;28;20867;-74
2021/03/30 03:25:52;;;;;;;20.00;12.52;;;;;;;;;;5060858;28;20490;-74
2021/03/30 03:28:18;;;;;;;21.00;11.95;;;;;;;;;;5086141;28;20394;-73
2021/03/30 03:30:44;;;;;;;18.52;11.85;;;;;;;;;;5084473;28;20477;-73
2021/03/30 03:33:13;;;;;;;21.47;12.13;;;;;;;;;;5086380;28;20488;-73
2021/03/30 03:35:39;;;;;;;20.05;12.63;;;;;;;;;;5085844;28;20520;-73
2021/03/30 03:38:05;;;;;;;17.90;11.88;;;;;;;;;;5084698;28;20803;-74
2021/03/30 03:40:32;;;;;;;21.17;12.90;;;;;;;;;;5083243;28;20425;-73
2021/03/30 03:42:58;;;;;;;20.90;13.20;;;;;;;;;;5083996;28;21077;-73
2021/03/30 03:45:24;;;;;;;20.90;13.07;;;;;;;;;;5086012;28;20418;-74
2021/03/30 03:47:50;;;;;;;20.45;13.32;;;;;;;;;;5085404;28;20393;-73
2021/03/30 03:50:16;;;;;;;20.73;13.18;;;;;;;;;;5085970;28;20398;-74
2021/03/30 03:52:44;;;;;;;21.15;13.48;;;;;;;;;;5084452;28;20401;-73
2021/03/30 03:55:11;;;;;;;22.70;13.30;;;;;;;;;;5085796;28;20439;-73
2021/03/30 03:57:54;;;;;;;23.73;13.98;;;;;;;;;;5085282;28;20551;-74
2021/03/30 04:00:22;;;;;;;21.67;14.43;;;;;;;;;;5083744;28;20452;-73
2021/03/30 04:03:01;;;;;;;23.48;13.68;;;;;;;;;;5083899;28;20783;-74
2021/03/30 04:05:34;;;;;;;20.15;13.55;;;;;;;;;;5084081;28;20439;-72
2021/03/30 04:08:04;;;;;;;21.27;13.83;;;;;;;;;;5083914;28;20481;-75
2021/03/30 04:10:31;;;;;;;22.02;13.38;;;;;;;;;;5059240;28;20405;-73
2021/03/30 04:12:58;;;;;;;24.65;14.77;;;;;;;;;;5084156;28;20394;-73
2021/03/30 04:15:25;;;;;;;22.90;14.15;;;;;;;;;;5083714;28;20386;-73
2021/03/30 04:17:51;;;;;;;20.98;14.27;;;;;;;;;;5084583;28;20390;-74
2021/03/30 04:20:18;;;;;;;20.75;14.00;;;;;;;;;;5058206;28;20530;-73
2021/03/30 04:22:50;;;;;;;22.13;14.93;;;;;;;;;;5084130;28;20396;-73
2021/03/30 04:25:16;;;;;;;25.52;15.02;;;;;;;;;;5084048;28;20874;-73
2021/03/30 04:27:42;;;;;;;29.67;15.43;;;;;;;;;;5081797;28;20397;-73
2021/03/30 04:30:08;;;;;;;25.08;15.05;;;;;;;;;;5084304;28;20402;-73
2021/03/30 04:32:34;;;;;;;23.77;15.45;;;;;;;;;;5083788;28;21176;-73
2021/03/30 04:35:00;;;;;;;20.85;13.75;;;;;;;;;;5081857;28;20534;-73
2021/03/30 04:37:26;;;;;;;25.08;16.00;;;;;;;;;;5082949;28;20488;-73
2021/03/30 04:39:52;;;;;;;24.77;15.17;;;;;;;;;;5085839;28;20522;-73
2021/03/30 04:42:18;;;;;;;20.65;15.07;;;;;;;;;;5084279;28;20406;-74
2021/03/30 04:44:44;;;;;;;25.77;15.77;;;;;;;;;;5084737;28;20381;-72
2021/03/30 04:47:10;;;;;;;26.27;16.42;;;;;;;;;;5081940;28;20398;-73
2021/03/30 04:49:36;;;;;;;26.20;16.70;;;;;;;;;;5082963;28;20386;-73
2021/03/30 04:52:02;;;;;;;24.67;17.13;;;;;;;;;;5079081;28;20390;-73
2021/03/30 04:54:28;;;;;;;26.95;16.67;;;;;;;;;;5082757;28;20487;-73
2021/03/30 04:56:54;;;;;;;23.43;16.90;;;;;;;;;;5066004;28;20435;-75
2021/03/30 04:59:20;;;;;;;25.60;17.00;;;;;;;;;;5081635;28;20433;-73
2021/03/30 05:01:45;;;;;;;24.95;17.02;;;;;;;;;;5058939;28;20402;-73
2021/03/30 05:04:11;;;;;;;24.23;16.17;;;;;;;;;;5082165;28;20629;-73
2021/03/30 05:06:37;;;;;;;24.42;16.95;;;;;;;;;;5079898;28;20388;-73
2021/03/30 05:09:04;;;;;;;29.60;18.55;;;;;;;;;;5081343;28;21001;-74
2021/03/30 05:11:30;;;;;;;26.55;18.38;;;;;;;;;;5081378;28;20407;-72
2021/03/30 05:13:56;;;;;;;35.75;22.75;;;;;;;;;;5082821;28;20413;-73
2021/03/30 05:16:22;;;;;;;28.77;18.88;;;;;;;;;;5060773;28;20845;-74
2021/03/30 05:18:48;;;;;;;26.85;18.58;;;;;;;;;;5083690;28;20391;-71
2021/03/30 05:21:14;;;;;;;34.45;20.42;;;;;;;;;;5079283;28;20402;-73
2021/03/30 05:23:39;;;;;;;33.60;20.47;;;;;;;;;;5081658;28;20402;-73
2021/03/30 05:26:05;;;;;;;26.88;18.42;;;;;;;;;;5081458;28;20400;-73
2021/03/30 05:28:32;;;;;;;32.00;19.17;;;;;;;;;;5082277;28;20506;-75
2021/03/30 05:30:58;;;;;;;30.20;19.42;;;;;;;;;;5082331;28;20406;-73
2021/03/30 05:33:24;;;;;;;26.98;19.23;;;;;;;;;;5080172;28;20420;-73
2021/03/30 05:35:50;;;;;;;28.65;18.65;;;;;;;;;;5079646;28;20405;-73
2021/03/30 05:38:16;;;;;;;29.77;18.50;;;;;;;;;;5056954;28;20491;-73
2021/03/30 05:40:42;;;;;;;29.90;18.25;;;;;;;;;;5081514;28;20910;-72
2021/03/30 05:43:09;;;;;;;27.30;17.88;;;;;;;;;;5081003;28;20841;-73
2021/03/30 05:45:35;;;;;;;27.02;18.33;;;;;;;;;;5063343;28;20394;-73
2021/03/30 05:48:01;;;;;;;29.20;19.45;;;;;;;;;;5083574;28;20401;-73
2021/03/30 05:50:33;;;;;;;28.80;18.75;;;;;;;;;;5081555;28;20413;-74
2021/03/30 05:53:06;;;;;;;25.38;17.75;;;;;;;;;;5080793;28;20394;-74
2021/03/30 05:55:33;;;;;;;26.27;17.38;;;;;;;;;;5081823;28;20488;-73
2021/03/30 05:58:00;;;;;;;28.17;18.83;;;;;;;;;;5080457;28;20481;-73
2021/03/30 06:00:27;;;;;;;28.10;18.27;;;;;;;;;;5081079;28;20433;-73
2021/03/30 06:03:07;;;;;;;27.85;17.13;;;;;;;;;;5078940;28;20886;-73
2021/03/30 06:05:34;;;;;;;27.02;17.17;;;;;;;;;;5081630;28;20399;-73
2021/03/30 06:08:01;;;;;;;27.73;16.77;;;;;;;;;;5082051;28;20386;-74
2021/03/30 06:10:28;;;;;;;24.55;16.45;;;;;;;;;;5066362;28;20775;-75
2021/03/30 06:12:58;;;;;;;26.40;17.43;;;;;;;;;;5060640;28;20390;-76
2021/03/30 06:15:34;;;;;;;28.27;18.10;;;;;;;;;;5080589;28;22897;-74
2021/03/30 06:18:01;;;;;;;25.52;17.98;;;;;;;;;;5080971;28;20409;-74
2021/03/30 06:20:34;;;;;;;29.92;18.02;;;;;;;;;;5082402;28;20484;-74
2021/03/30 06:23:01;;;;;;;28.70;17.70;;;;;;;;;;5078832;28;20920;-74
2021/03/30 06:25:55;;;;;;;25.88;17.67;;;;;;;;;;5081885;28;21044;-74
2021/03/30 06:28:25;;;;;;;25.67;16.95;;;;;;;;;;5078585;28;20740;-73
2021/03/30 06:30:56;;;;;;;25.25;17.42;;;;;;;;;;5083147;28;20413;-73
2021/03/30 06:33:22;;;;;;;29.45;17.67;;;;;;;;;;5084788;28;20530;-74
2021/03/30 06:35:48;;;;;;;28.20;18.55;;;;;;;;;;5087790;28;20468;-73
2021/03/30 06:38:15;;;;;;;25.80;17.95;;;;;;;;;;5086814;28;20418;-74
2021/03/30 06:40:43;;;;;;;27.87;18.10;;;;;;;;;;5080821;28;20518;-73
2021/03/30 06:46:05;;;;;;;26.27;17.65;;;;;;;;;;5087799;28;20602;-73
2021/03/30 06:48:31;;;;;;;24.15;17.25;;;;;;;;;;5067963;28;20850;-73
2021/03/30 06:51:01;;;;;;;24.30;16.42;;;;;;;;;;5075505;28;20842;-73
2021/03/30 06:53:32;;;;;;;30.65;18.73;;;;;;;;;;5078916;28;20390;-73
2021/03/30 06:55:58;;;;;;;27.10;16.88;;;;;;;;;;5086750;28;20864;-73
2021/03/30 06:58:24;;;;;;;32.80;22.55;;;;;;;;;;5084327;28;20524;-73
2021/03/30 07:00:51;;;;;;;37.85;25.63;;;;;;;;;;5085698;28;20425;-74
2021/03/30 07:03:18;;;;;;;33.53;22.70;;;;;;;;;;5087830;28;20390;-73
2021/03/30 07:05:44;;;;;;;34.22;21.30;;;;;;;;;;5091657;28;20847;-73
2021/03/30 07:08:14;;;;;;;31.80;22.13;;;;;;;;;;5091222;28;20418;-73
2021/03/30 07:10:42;;;;;;;32.58;21.35;;;;;;;;;;5091689;28;20405;-74
2021/03/30 07:13:10;;;;;;;34.30;22.45;;;;;;;;;;5084628;28;20410;-73
2021/03/30 07:15:36;;;;;;;33.42;22.17;;;;;;;;;;5091771;28;20468;-73
2021/03/30 07:18:20;;;;;;;31.50;21.80;;;;;;;;;;5090593;28;20492;-74
2021/03/30 07:20:49;;;;;;;33.50;21.90;;;;;;;;;;5075272;28;20425;-74
2021/03/30 07:23:22;;;;;;;34.17;22.92;;;;;;;;;;5090408;28;20400;-74
2021/03/30 07:25:57;;;;;;;35.75;22.90;;;;;;;;;;5092355;28;20403;-73
2021/03/30 07:28:24;;;;;;;41.00;23.88;;;;;;;;;;5087508;28;20519;-73
2021/03/30 07:30:54;;;;;;;37.35;24.25;;;;;;;;;;5086031;28;20475;-73
2021/03/30 07:33:24;;;;;;;37.28;24.35;;;;;;;;;;5086676;28;20389;-73
2021/03/30 07:35:51;;;;;;;36.63;23.77;;;;;;;;;;5090473;28;20750;-74
2021/03/30 07:38:19;;;;;;;35.05;23.75;;;;;;;;;;5088475;28;20382;-74
2021/03/30 07:40:45;;;;;;;34.83;23.48;;;;;;;;;;5071584;28;20411;-74
2021/03/30 07:43:21;;;;;;;33.88;22.23;;;;;;;;;;5079408;28;20796;-73
2021/03/30 07:45:47;;;;;;;35.85;22.83;;;;;;;;;;5088090;28;20394;-74
2021/03/30 07:48:16;;;;;;;34.17;23.10;;;;;;;;;;5065712;28;20394;-74
2021/03/30 07:51:07;;;;;;;35.95;22.30;;;;;;;;;;5088158;28;20469;-76
2021/03/30 07:53:39;;;;;;;34.83;22.90;;;;;;;;;;5083299;28;20422;-75
2021/03/30 07:56:05;;;;;;;36.60;23.15;;;;;;;;;;5089417;28;20458;-74
2021/03/30 07:58:41;;;;;;;35.73;22.87;;;;;;;;;;5086324;28;20821;-74
2021/03/30 08:01:09;;;;;;;36.83;23.30;;;;;;;;;;5086916;28;21098;-74
2021/03/30 08:03:36;;;;;;;37.22;22.90;;;;;;;;;;5086653;28;20388;-74
2021/03/30 08:06:19;;;;;;;34.72;22.38;;;;;;;;;;5081013;28;20828;-74
2021/03/30 08:08:45;;;;;;;38.92;21.75;;;;;;;;;;5090074;28;20425;-74
2021/03/30 08:11:12;;;;;;;34.05;21.30;;;;;;;;;;5089481;28;20724;-74
2021/03/30 08:13:58;;;;;;;37.55;20.85;;;;;;;;;;5081065;28;20389;-74
2021/03/30 08:16:25;;;;;;;31.58;21.02;;;;;;;;;;5085766;28;20394;-74
2021/03/30 08:18:52;;;;;;;37.95;21.17;;;;;;;;;;5086447;28;21047;-75
2021/03/30 08:21:19;;;;;;;30.35;19.30;;;;;;;;;;5067463;28;21136;-74
2021/03/30 08:23:56;;;;;;;33.78;18.55;;;;;;;;;;5088908;28;20472;-74
2021/03/30 08:26:24;;;;;;;28.13;17.63;;;;;;;;;;5086581;28;21124;-76
2021/03/30 08:28:50;;;;;;;26.50;17.02;;;;;;;;;;5078588;28;20429;-74
2021/03/30 08:31:16;;;;;;;28.48;17.20;;;;;;;;;;5088208;28;20386;-73
2021/03/30 08:33:43;;;;;;;27.27;16.67;;;;;;;;;;5069031;28;20454;-74
2021/03/30 08:36:24;;;;;;;28.92;17.15;;;;;;;;;;5072484;28;20408;-74
2021/03/30 08:38:52;;;;;;;28.70;16.77;;;;;;;;;;5088377;28;20444;-74
2021/03/30 08:41:38;;;;;;;28.90;18.27;;;;;;;;;;5089296;28;20405;-74
2021/03/30 08:44:21;;;;;;;27.17;17.43;;;;;;;;;;5089536;28;20409;-73
2021/03/30 08:46:48;;;;;;;27.42;17.92;;;;;;;;;;5087816;28;20939;-73
2021/03/30 08:49:28;;;;;;;26.80;18.35;;;;;;;;;;5072426;28;20389;-73
2021/03/30 08:51:59;;;;;;;29.50;18.55;;;;;;;;;;5088861;28;20459;-74
2021/03/30 08:54:29;;;;;;;26.52;18.02;;;;;;;;;;5086969;28;20479;-73
2021/03/30 08:57:14;;;;;;;28.08;17.75;;;;;;;;;;5086998;28;20398;-73
2021/03/30 08:59:40;;;;;;;27.55;18.83;;;;;;;;;;5079198;28;20552;-73
2021/03/30 09:02:08;;;;;;;27.88;16.92;;;;;;;;;;5082874;28;20439;-73
2021/03/30 09:04:39;;;;;;;24.80;17.17;;;;;;;;;;5085668;28;20393;-73
2021/03/30 09:07:05;;;;;;;23.42;15.95;;;;;;;;;;5086139;28;20458;-73
2021/03/30 09:09:35;;;;;;;23.95;15.93;;;;;;;;;;5086360;28;20856;-73
2021/03/30 09:12:03;;;;;;;26.90;15.95;;;;;;;;;;5067774;28;20959;-73
2021/03/30 09:14:29;;;;;;;25.58;15.05;;;;;;;;;;5083738;28;20435;-73
2021/03/30 09:17:03;;;;;;;22.48;14.90;;;;;;;;;;5085343;28;20394;-73
2021/03/30 09:19:33;;;;;;;22.17;14.32;;;;;;;;;;5076903;28;20457;-73
2021/03/30 09:22:06;;;;;;;22.52;13.88;;;;;;;;;;5088896;28;20389;-73
2021/03/30 09:27:05;;;;;;;20.58;13.25;;;;;;;;;;5077965;28;20386;-72
2021/03/30 09:29:32;;;;;;;19.33;13.30;;;;;;;;;;5073128;28;20417;-73
2021/03/30 09:31:58;;;;;;;19.85;12.90;;;;;;;;;;5079400;28;20405;-73
2021/03/30 09:34:25;;;;;;;19.05;12.38;;;;;;;;;;5082428;28;20398;-73
2021/03/30 09:36:51;;;;;;;19.10;11.63;;;;;;;;;;5088827;28;20844;-73
2021/03/30 09:39:18;;;;;;;18.08;11.55;;;;;;;;;;5086426;28;20412;-73
2021/03/30 09:41:45;;;;;;;18.52;11.00;;;;;;;;;;5076477;28;20378;-73
2021/03/30 09:44:12;;;;;;;16.98;11.02;;;;;;;;;;5083406;28;20394;-73
2021/03/30 09:46:38;;;;;;;18.10;10.63;;;;;;;;;;5077622;28;20490;-74
2021/03/30 09:49:08;;;;;;;16.33;10.60;;;;;;;;;;5084421;28;20841;-73
2021/03/30 09:51:35;;;;;;;18.98;10.73;;;;;;;;;;5082963;28;20397;-73
2021/03/30 09:54:01;;;;;;;16.95;10.95;;;;;;;;;;5084326;28;20420;-73
2021/03/30 09:56:28;;;;;;;15.82;10.48;;;;;;;;;;5077612;28;20393;-73
2021/03/30 09:58:58;;;;;;;26.05;10.45;;;;;;;;;;5086583;28;20414;-73
2021/03/30 10:01:24;;;;;;;18.90;10.50;;;;;;;;;;5079349;28;20402;-73
2021/03/30 10:03:51;;;;;;;17.33;10.15;;;;;;;;;;5081174;28;21034;-74
2021/03/30 10:06:21;;;;;;;19.15;9.43;;;;;;;;;;5082366;28;20419;-73
2021/03/30 10:08:47;;;;;;;18.02;8.93;;;;;;;;;;5077763;28;20522;-73
2021/03/30 10:11:14;;;;;;;24.65;9.73;;;;;;;;;;5072702;28;20443;-73
2021/03/30 10:13:41;;;;;;;25.83;9.75;;;;;;;;;;5083249;28;22451;-73
2021/03/30 10:16:09;;;;;;;18.40;9.25;;;;;;;;;;5085437;28;20385;-73
2021/03/30 10:18:36;;;;;;;15.20;8.52;;;;;;;;;;5083431;28;20481;-73
2021/03/30 10:21:13;;;;;;;15.43;8.75;;;;;;;;;;5081825;28;20758;-71
2021/03/30 10:23:40;;;;;;;21.38;8.48;;;;;;;;;;5059576;28;20406;-73
2021/03/30 10:26:10;;;;;;;17.50;8.27;;;;;;;;;;5088044;28;20948;-73
2021/03/30 10:28:36;;;;;;;14.45;8.02;;;;;;;;;;5083053;28;20394;-73
2021/03/30 10:31:06;;;;;;;13.27;7.72;;;;;;;;;;5074565;28;20412;-73
2021/03/30 10:33:34;;;;;;;13.45;7.40;;;;;;;;;;5081232;28;20481;-73
2021/03/30 10:36:00;;;;;;;13.52;7.80;;;;;;;;;;5086599;28;21092;-73
2021/03/30 10:38:26;;;;;;;16.48;8.35;;;;;;;;;;5081535;28;20495;-72
2021/03/30 10:41:02;;;;;;;17.58;8.43;;;;;;;;;;5079880;28;20494;-72
2021/03/30 10:43:28;;;;;;;15.57;8.63;;;;;;;;;;5075260;28;20492;-72
2021/03/30 10:45:54;;;;;;;13.70;8.45;;;;;;;;;;5086551;28;20469;-72
2021/03/30 10:48:20;;;;;;;12.98;7.90;;;;;;;;;;5075450;28;20581;-72
2021/03/30 10:50:46;;;;;;;13.33;8.17;;;;;;;;;;5078929;28;20401;-73
2021/03/30 10:53:12;;;;;;;14.85;8.07;;;;;;;;;;5082403;28;20398;-73
2021/03/30 10:55:39;;;;;;;14.00;7.50;;;;;;;;;;5077802;28;20419;-72
2021/03/30 10:58:10;;;;;;;12.20;7.00;;;;;;;;;;5084257;28;20405;-74
2021/03/30 11:00:36;;;;;;;11.02;6.47;;;;;;;;;;5082580;28;20618;-72
2021/03/30 11:03:02;;;;;;;10.50;6.00;;;;;;;;;;5080632;28;20398;-72
2021/03/30 11:05:28;;;;;;;10.98;6.25;;;;;;;;;;5086586;28;20394;-73
2021/03/30 11:07:54;;;;;;;9.95;6.35;;;;;;;;;;5087523;28;20854;-73
2021/03/30 11:10:24;;;;;;;9.48;5.68;;;;;;;;;;5086138;28;20447;-73
2021/03/30 11:12:50;;;;;;;9.93;5.70;;;;;;;;;;5086619;28;20444;-72
2021/03/30 11:15:16;;;;;;;10.35;5.68;;;;;;;;;;5087040;28;20402;-73
2021/03/30 11:17:42;;;;;;;10.35;5.85;;;;;;;;;;5079233;28;20397;-72
2021/03/30 11:20:09;;;;;;;9.85;5.60;;;;;;;;;;5086977;28;20447;-73
2021/03/30 11:22:35;;;;;;;11.35;5.63;;;;;;;;;;5076433;28;20439;-72
2021/03/30 11:25:03;;;;;;;9.15;5.60;;;;;;;;;;5084868;28;20393;-72
2021/03/30 11:27:32;;;;;;;10.23;5.47;;;;;;;;;;5081142;28;20484;-73
2021/03/30 11:30:36;;;;;;;8.97;4.83;;;;;;;;;;5058558;28;20430;-74
2021/03/30 11:33:12;;;;;;;17.85;7.78;;;;;;;;;;5079648;28;20413;-73
2021/03/30 11:38:16;;;;;;;11.82;6.30;;;;;;;;;;5082477;28;20875;-73
2021/03/30 11:40:43;;;;;;;14.43;7.82;;;;;;;;;;5082195;28;20766;-73
2021/03/30 11:43:09;;;;;;;14.98;7.70;;;;;;;;;;5090190;28;20554;-72
2021/03/30 11:45:35;;;;;;;13.48;7.93;;;;;;;;;;5080944;28;20395;-73
2021/03/30 11:48:01;;;;;;;15.13;7.93;;;;;;;;;;5096500;28;20396;-72
2021/03/30 11:50:28;;;;;;;12.77;8.23;;;;;;;;;;5088782;28;20851;-73
2021/03/30 11:52:54;;;;;;;13.13;8.10;;;;;;;;;;5084411;28;20445;-72
2021/03/30 11:55:21;;;;;;;13.65;8.45;;;;;;;;;;5085752;28;20911;-72
2021/03/30 11:57:48;;;;;;;16.73;9.10;;;;;;;;;;5088449;28;20393;-73
2021/03/30 12:00:14;;;;;;;14.90;8.50;;;;;;;;;;5087719;28;20924;-73
2021/03/30 12:02:40;;;;;;;13.18;8.10;;;;;;;;;;5082400;28;20435;-72
2021/03/30 12:05:07;;;;;;;12.93;7.47;;;;;;;;;;5087889;28;20393;-72
2021/03/30 12:07:33;;;;;;;15.50;8.55;;;;;;;;;;5087353;28;20433;-72
2021/03/30 12:09:59;;;;;;;14.25;7.97;;;;;;;;;;5091564;28;20402;-71
2021/03/30 12:12:25;;;;;;;12.82;7.93;;;;;;;;;;5089619;28;20401;-73
2021/03/30 12:14:51;;;;;;;12.98;7.78;;;;;;;;;;5086672;28;20396;-72
2021/03/30 12:17:17;;;;;;;12.65;7.28;;;;;;;;;;5086501;28;20389;-73
2021/03/30 12:19:43;;;;;;;12.27;8.00;;;;;;;;;;5083548;28;20425;-73
2021/03/30 12:22:09;;;;;;;13.15;7.03;;;;;;;;;;5085204;28;20443;-73
2021/03/30 12:24:37;;;;;;;12.30;7.53;;;;;;;;;;5084902;28;20402;-73
2021/03/30 12:27:04;;;;;;;12.25;7.50;;;;;;;;;;5085246;28;20790;-73
2021/03/30 12:29:29;;;;;;;13.32;8.40;;;;;;;;;;5083906;28;20416;-72
2021/03/30 12:31:55;;;;;;;14.82;8.90;;;;;;;;;;5085947;28;20424;-73
2021/03/30 12:34:21;;;;;;;15.27;8.27;;;;;;;;;;5085635;28;20401;-72
2021/03/30 12:36:47;;;;;;;15.37;9.50;;;;;;;;;;5086633;28;20919;-72
2021/03/30 12:39:13;;;;;;;15.23;9.60;;;;;;;;;;5086430;28;20386;-72
2021/03/30 12:41:39;;;;;;;14.82;9.02;;;;;;;;;;5085107;28;20400;-73
2021/03/30 12:44:05;;;;;;;13.15;8.40;;;;;;;;;;5080595;28;20401;-72
2021/03/30 12:46:31;;;;;;;20.90;8.80;;;;;;;;;;5083385;28;20397;-72
2021/03/30 12:48:57;;;;;;;14.02;8.60;;;;;;;;;;5086707;28;20845;-72
2021/03/30 12:51:23;;;;;;;13.35;7.82;;;;;;;;;;5089743;28;20440;-73
2021/03/30 12:53:49;;;;;;;14.48;9.02;;;;;;;;;;5071991;28;21055;-72
2021/03/30 12:56:15;;;;;;;16.02;8.35;;;;;;;;;;5090355;28;20450;-73
2021/03/30 12:58:41;;;;;;;15.73;8.77;;;;;;;;;;5088456;28;20467;-72
2021/03/30 13:01:07;;;;;;;14.40;9.07;;;;;;;;;;5087693;28;20445;-73
2021/03/30 13:03:33;;;;;;;16.80;9.40;;;;;;;;;;5086869;28;20398;-73
2021/03/30 13:05:59;;;;;;;13.68;8.07;;;;;;;;;;5081196;28;20435;-73
2021/03/30 13:08:25;;;;;;;13.90;8.40;;;;;;;;;;5087522;28;20509;-73
2021/03/30 13:10:51;;;;;;;12.55;7.80;;;;;;;;;;5085458;28;20391;-73
2021/03/30 13:13:17;;;;;;;16.67;8.30;;;;;;;;;;5080732;28;20401;-73
2021/03/30 13:15:43;;;;;;;15.25;7.93;;;;;;;;;;5082347;28;20765;-74
2021/03/30 13:18:09;;;;;;;15.07;7.90;;;;;;;;;;5085746;28;20516;-73
2021/03/30 13:20:35;;;;;;;13.35;7.45;;;;;;;;;;5085583;28;20517;-73
2021/03/30 13:23:02;;;;;;;13.47;7.13;;;;;;;;;;5079461;28;20410;-72
2021/03/30 13:25:33;;;;;;;12.80;7.25;;;;;;;;;;5076948;28;20378;-73
2021/03/30 13:27:59;;;;;;;13.00;7.03;;;;;;;;;;5078124;28;20411;-73
2021/03/30 13:30:25;;;;;;;11.73;6.63;;;;;;;;;;5076394;28;20450;-73
2021/03/30 13:32:51;;;;;;;12.70;6.57;;;;;;;;;;5085293;28;20460;-73
2021/03/30 13:35:17;;;;;;;13.10;7.28;;;;;;;;;;5077778;28;20393;-73
2021/03/30 13:37:43;;;;;;;12.27;7.20;;;;;;;;;;5076765;28;20398;-73
2021/03/30 13:40:09;;;;;;;12.68;6.60;;;;;;;;;;5086550;28;20422;-73
2021/03/30 13:42:35;;;;;;;14.27;7.43;;;;;;;;;;5087361;28;20426;-73
2021/03/30 13:45:01;;;;;;;15.32;7.45;;;;;;;;;;5084208;28;20485;-73
2021/03/30 13:47:27;;;;;;;16.05;7.97;;;;;;;;;;5078929;28;20509;-73
2021/03/30 13:49:53;;;;;;;14.70;7.35;;;;;;;;;;5065320;28;20408;-73
2021/03/30 13:52:19;;;;;;;13.02;7.28;;;;;;;;;;5088140;28;20401;-73
2021/03/30 13:54:45;;;;;;;13.55;7.97;;;;;;;;;;5084224;28;20370;-73
2021/03/30 13:57:11;;;;;;;12.68;7.47;;;;;;;;;;5071797;28;20401;-73
2021/03/30 13:59:37;;;;;;;14.98;7.93;;;;;;;;;;5081962;28;20496;-74
2021/03/30 14:02:03;;;;;;;14.55;7.63;;;;;;;;;;5078618;28;20445;-73
2021/03/30 14:04:29;;;;;;;13.15;7.65;;;;;;;;;;5081337;28;20855;-72
2021/03/30 14:06:55;;;;;;;14.32;7.47;;;;;;;;;;5078507;28;20429;-73
2021/03/30 14:09:23;;;;;;;14.30;7.95;;;;;;;;;;5079614;28;20423;-73
2021/03/30 14:12:04;;;;;;;14.23;7.90;;;;;;;;;;5079770;28;20410;-72
2021/03/30 14:15:09;;;;;;;15.25;8.32;;;;;;;;;;5086258;28;20401;-73
2021/03/30 14:19:58;;;;;;;18.10;10.00;;;;;;;;;;5086931;28;20433;-73
2021/03/30 14:22:35;;;;;;;16.63;9.95;;;;;;;;;;5085408;28;20723;-73
2021/03/30 14:25:10;;;;;;;19.67;11.75;;;;;;;;;;5087005;28;20386;-73
2021/03/30 14:27:36;;;;;;;23.87;13.27;;;;;;;;;;5086937;28;20455;-73
2021/03/30 14:30:03;;;;;;;22.35;11.30;;;;;;;;;;5088077;28;20382;-72
2021/03/30 14:32:30;;;;;;;24.83;12.13;;;;;;;;;;5084532;28;20398;-73
2021/03/30 14:34:57;;;;;;;21.10;11.82;;;;;;;;;;5085725;28;20408;-73
2021/03/30 14:37:25;;;;;;;24.85;12.40;;;;;;;;;;5086876;28;20515;-73
2021/03/30 14:39:52;;;;;;;24.52;12.68;;;;;;;;;;5082659;28;20427;-72